createdAt,value
2019-03-20T00:01:08.697Z,9.7
2019-03-20T00:06:31.405Z,10.3
2019-03-20T00:11:54.829Z,10.4
2019-03-20T00:17:18.054Z,13.3
2019-03-20T00:22:42.941Z,10.8
2019-03-20T00:28:04.712Z,10.3
2019-03-20T00:33:27.385Z,13.5
2019-03-20T00:38:50.139Z,11.6
2019-03-20T00:44:12.816Z,12.6
2019-03-20T00:49:35.598Z,19.4
2019-03-20T00:54:58.390Z,29.6
2019-03-20T01:00:20.969Z,11.4
2019-03-20T01:05:43.811Z,11.5
2019-03-20T01:11:06.423Z,13.9
2019-03-20T01:16:29.035Z,14.1
2019-03-20T01:21:51.706Z,13.5
2019-03-20T01:27:14.490Z,13.1
2019-03-20T01:32:37.137Z,14.3
2019-03-20T01:37:59.782Z,13.5
2019-03-20T01:43:22.401Z,14.8
2019-03-20T01:48:46.037Z,14.7
2019-03-20T01:54:09.420Z,14.3
2019-03-20T01:59:32.061Z,15.2
2019-03-20T02:04:55.698Z,15.6
2019-03-20T02:10:18.354Z,17.5
2019-03-20T02:15:41.569Z,20.9
2019-03-20T02:21:04.249Z,19.299999
2019-03-20T02:26:26.916Z,16.700001
2019-03-20T02:31:49.611Z,17.200001
2019-03-20T02:37:12.219Z,17.5
2019-03-20T02:42:34.928Z,18.5
2019-03-20T02:47:57.539Z,18.1
2019-03-20T02:53:20.340Z,18.200001
2019-03-20T02:58:43.060Z,17
2019-03-20T03:04:05.739Z,17.5
2019-03-20T03:09:28.410Z,16.799999
2019-03-20T03:14:51.045Z,18.700001
2019-03-20T03:20:13.775Z,18.6
2019-03-20T03:25:36.512Z,18.700001
2019-03-20T03:30:59.393Z,18.299999
2019-03-20T03:36:22.109Z,18.6
2019-03-20T03:41:44.726Z,17.6
2019-03-20T03:47:07.403Z,18.6
2019-03-20T03:52:30.008Z,18.1
2019-03-20T03:57:52.691Z,17.799999
2019-03-20T04:03:15.404Z,18.299999
2019-03-20T04:08:38.108Z,19.200001
2019-03-20T04:14:00.830Z,18.799999
2019-03-20T04:19:24.621Z,19.299999
2019-03-20T04:24:47.926Z,19.299999
2019-03-20T04:30:10.631Z,19.1
2019-03-20T04:35:33.641Z,19.4
2019-03-20T04:40:56.569Z,19.299999
2019-03-20T04:46:19.250Z,19
2019-03-20T04:51:41.987Z,20.4
2019-03-20T04:57:04.953Z,19.299999
2019-03-20T05:02:27.494Z,20.4
2019-03-20T05:07:50.094Z,20.4
2019-03-20T05:13:12.767Z,20.1
2019-03-20T05:18:35.690Z,20.5
2019-03-20T05:23:58.404Z,20.6
2019-03-20T05:29:22.070Z,20.9
2019-03-20T05:34:44.748Z,20.1
2019-03-20T05:40:07.425Z,20.200001
2019-03-20T05:45:30.142Z,20.200001
2019-03-20T05:50:53.326Z,20.799999
2019-03-20T05:56:16.071Z,20.5
2019-03-20T06:01:38.793Z,20.200001
2019-03-20T06:07:01.484Z,20.6
2019-03-20T06:12:24.158Z,22.1
2019-03-20T06:17:47.087Z,22.200001
2019-03-20T06:23:11.173Z,31.5
2019-03-20T06:28:33.134Z,19.6
2019-03-20T06:33:55.722Z,18.9
2019-03-20T06:39:18.348Z,18.4
2019-03-20T06:44:41.067Z,20.5
2019-03-20T06:50:03.705Z,17.700001
2019-03-20T06:55:26.366Z,18.200001
2019-03-20T07:00:49.038Z,32.5
2019-03-20T07:06:11.665Z,18.4
2019-03-20T07:11:34.404Z,21.299999
2019-03-20T07:16:57.066Z,15.4
2019-03-20T07:22:19.799Z,17.1
2019-03-20T07:27:42.609Z,15.7
2019-03-20T07:33:05.452Z,15.5
2019-03-20T07:38:28.192Z,14.6
2019-03-20T07:43:50.845Z,14.6
2019-03-20T07:49:13.899Z,14.2
2019-03-20T07:54:36.523Z,14.1
2019-03-20T07:59:59.127Z,13.5
2019-03-20T08:05:28.995Z,13.6
2019-03-20T08:10:45.521Z,13.9
2019-03-20T08:16:08.240Z,14.8
2019-03-20T08:21:30.885Z,14.5
2019-03-20T08:26:53.981Z,15.3
2019-03-20T08:32:16.950Z,18.299999
2019-03-20T08:37:39.593Z,15.2
2019-03-20T08:43:02.299Z,15.9
2019-03-20T08:48:24.979Z,15.8
2019-03-20T08:53:47.623Z,16.299999
2019-03-20T08:59:10.427Z,17.299999
2019-03-20T09:04:33.038Z,16
2019-03-20T09:09:55.684Z,15.2
2019-03-20T09:15:18.328Z,15.5
2019-03-20T09:20:40.950Z,15.8
2019-03-20T09:26:05.390Z,15.5
2019-03-20T09:31:28.025Z,15.3
2019-03-20T09:36:50.649Z,16
2019-03-20T09:42:13.353Z,15.2
2019-03-20T09:47:36.067Z,15.9
2019-03-20T09:52:59.214Z,13.9
2019-03-20T09:58:22.893Z,11.9
2019-03-20T10:03:45.593Z,12.5
2019-03-20T10:09:08.128Z,12.3
2019-03-20T10:14:30.816Z,12
2019-03-20T10:19:53.453Z,12.6
2019-03-20T10:25:16.110Z,12.7
2019-03-20T10:30:38.709Z,13.8
2019-03-20T10:36:01.387Z,14.6
2019-03-20T10:41:24.040Z,14.8
2019-03-20T10:46:46.927Z,15.2
2019-03-20T10:52:09.635Z,15.6
2019-03-20T10:57:32.246Z,15.6
2019-03-20T11:02:54.934Z,16
2019-03-20T11:08:17.530Z,16.200001
2019-03-20T11:13:40.329Z,16
2019-03-20T11:19:03.027Z,16.4
2019-03-20T11:24:25.793Z,16.5
2019-03-20T11:29:48.879Z,15.3
2019-03-20T11:35:11.498Z,14.5
2019-03-20T11:40:34.199Z,14.3
2019-03-20T11:45:57.622Z,13.2
2019-03-20T11:51:20.470Z,12.8
2019-03-20T11:56:43.299Z,13
2019-03-20T12:02:05.958Z,12.4
2019-03-20T12:07:28.640Z,11.8
2019-03-20T12:12:51.348Z,10.6
2019-03-20T12:18:15.491Z,10.2
2019-03-20T12:23:38.409Z,10.7
2019-03-20T12:29:01.147Z,10.5
2019-03-20T12:34:24.777Z,7.7
2019-03-20T12:39:52.991Z,7.8
2019-03-20T12:45:12.474Z,7.4
2019-03-20T12:50:35.149Z,7.2
2019-03-20T12:55:57.727Z,7.6
2019-03-20T13:01:20.319Z,7.4
2019-03-20T13:06:42.954Z,8.7
2019-03-20T13:12:05.657Z,7.6
2019-03-20T13:17:28.325Z,7.9
2019-03-20T13:22:50.913Z,8.4
2019-03-20T13:28:13.731Z,7.9
2019-03-20T13:33:36.398Z,8.1
2019-03-20T13:38:58.959Z,8
2019-03-20T13:44:22.266Z,8.5
2019-03-20T13:49:44.823Z,8
2019-03-20T13:55:07.487Z,8.2
2019-03-20T14:00:30.059Z,8.4
2019-03-20T14:05:53.842Z,8.2
2019-03-20T14:11:16.515Z,8.7
2019-03-20T14:16:39.233Z,8.4
2019-03-20T14:22:01.860Z,9.2
2019-03-20T14:27:24.485Z,10
2019-03-20T14:32:47.203Z,11
2019-03-20T14:38:09.796Z,11.2
2019-03-20T14:43:32.485Z,12.1
2019-03-20T14:48:55.231Z,12.3
2019-03-20T14:54:18.738Z,11.7
2019-03-20T14:59:41.877Z,10.9
2019-03-20T15:05:04.626Z,10.4
2019-03-20T15:10:27.299Z,10.7
2019-03-20T15:15:49.925Z,9.8
2019-03-20T15:21:12.601Z,9.9
2019-03-20T15:26:35.203Z,9.7
2019-03-20T15:31:57.890Z,9.6
2019-03-20T15:37:20.468Z,8.8
2019-03-20T15:42:43.583Z,8.7
2019-03-20T15:48:06.295Z,8.8
2019-03-20T15:53:28.887Z,9.4
2019-03-20T15:58:51.533Z,10.2
2019-03-20T16:04:14.144Z,9.5
2019-03-20T16:09:36.761Z,9.5
2019-03-20T16:14:59.376Z,10
2019-03-20T16:20:22.217Z,10
2019-03-20T16:25:44.810Z,9.9
2019-03-20T16:31:07.466Z,10.6
2019-03-20T16:36:30.079Z,10.6
2019-03-20T16:41:52.852Z,10.5
2019-03-20T16:47:15.571Z,11.6
2019-03-20T16:52:38.279Z,11.3
2019-03-20T16:58:00.854Z,11.5
2019-03-20T17:03:23.490Z,10.5
2019-03-20T17:08:46.125Z,11.5
2019-03-20T17:14:08.772Z,11.4
2019-03-20T17:19:31.392Z,11.9
2019-03-20T17:24:53.990Z,11.4
2019-03-20T17:30:16.738Z,12.2
2019-03-20T17:35:39.647Z,11.4
2019-03-20T17:41:02.445Z,11.6
2019-03-20T17:46:25.044Z,11.2
2019-03-20T17:51:47.666Z,11.7
2019-03-20T17:57:10.270Z,11.7
2019-03-20T18:02:31.492Z,11
2019-03-20T18:07:54.204Z,11.6
2019-03-20T18:13:16.896Z,11.9
2019-03-20T18:18:39.504Z,11.4
2019-03-20T18:24:02.138Z,11.8
2019-03-20T18:29:25.422Z,11.8
2019-03-20T18:34:48.127Z,12
2019-03-20T18:40:11.757Z,11.9
2019-03-20T18:45:34.353Z,12.4
2019-03-20T18:50:56.981Z,12.3
2019-03-20T18:56:19.692Z,12.9
2019-03-20T19:01:43.453Z,12.3
2019-03-20T19:07:06.161Z,12.4
2019-03-20T19:12:32.751Z,12.9
2019-03-20T19:17:55.390Z,12.5
2019-03-20T19:23:18.001Z,12.6
2019-03-20T19:28:41.008Z,12.9
2019-03-20T19:34:03.764Z,12.5
2019-03-20T19:39:26.479Z,13.1
2019-03-20T19:44:49.165Z,12.5
2019-03-20T19:50:11.857Z,13.2
2019-03-20T19:55:34.954Z,13.6
2019-03-20T20:00:57.681Z,13.8
2019-03-20T20:06:20.754Z,15.5
2019-03-20T20:11:43.373Z,16.200001
2019-03-20T20:17:06.167Z,16.200001
2019-03-20T20:22:28.803Z,16.799999
2019-03-20T20:27:51.607Z,16.299999
2019-03-20T20:33:14.204Z,16.9
2019-03-20T20:38:36.798Z,17.799999
2019-03-20T20:44:00.448Z,16.700001
2019-03-20T20:49:23.887Z,16.4
2019-03-20T20:54:46.639Z,16.299999
2019-03-20T21:00:09.611Z,17.5
2019-03-20T21:05:32.572Z,17
2019-03-20T21:10:55.364Z,17.6
2019-03-20T21:16:18.170Z,18.700001
2019-03-20T21:21:41.179Z,18.4
2019-03-20T21:27:04.120Z,18.6
2019-03-20T21:32:26.942Z,19.4
2019-03-20T21:37:49.779Z,19.9
2019-03-20T21:43:12.551Z,19.1
2019-03-20T21:48:35.248Z,19.4
2019-03-20T21:53:58.948Z,20.6
2019-03-20T21:59:21.672Z,20.700001
2019-03-20T22:04:44.271Z,20.6
2019-03-20T22:10:06.955Z,20.799999
2019-03-20T22:15:29.559Z,19.799999
2019-03-20T22:20:52.373Z,21.6
2019-03-20T22:26:15.036Z,20.9
2019-03-20T22:31:37.736Z,21.799999
2019-03-20T22:37:00.298Z,23
2019-03-20T22:42:23.510Z,21.5
2019-03-20T22:47:46.977Z,23
2019-03-20T22:53:10.541Z,24.1
2019-03-20T22:58:33.150Z,22.1
2019-03-20T23:03:55.851Z,21.9
2019-03-20T23:09:18.443Z,23.1
2019-03-20T23:14:41.066Z,24.5
2019-03-20T23:20:03.650Z,22.6
2019-03-20T23:25:26.244Z,23.700001
2019-03-20T23:30:48.866Z,24.299999
2019-03-20T23:36:11.855Z,24.4
2019-03-20T23:41:35.093Z,28.9
2019-03-20T23:46:57.739Z,25
2019-03-20T23:52:20.413Z,25.4
2019-03-20T23:57:42.995Z,29.4
